Time;durP1;ratioP1;P1;durP2;ratioP2;P2;SDS_P1;SDS_P2;PMS_P1;PMS_P2;Temp;Humidity;BMP_temperature;BMP_pressure;BME280_temperature;BME280_humidity;BME280_pressure;Samples;Min_cycle;Max_cycle;Signal;HPM_P1;HPM_P2
2022/07/01 00:02:08;;;;;;;5.83;3.60;;;;;;;20.29;71.50;100326.24;1729681;80;21051;-74
2022/07/01 00:04:34;;;;;;;4.70;3.70;;;;;;;20.28;71.66;100325.09;1745543;80;20997;-75
2022/07/01 00:07:20;;;;;;;4.45;3.65;;;;;;;20.24;71.74;100324.61;1735065;80;21035;-74
2022/07/01 00:09:47;;;;;;;4.75;3.72;;;;;;;20.21;71.85;100329.02;1759761;81;21912;-74
2022/07/01 00:12:15;;;;;;;7.10;4.03;;;;;;;20.19;71.95;100333.74;1770645;81;20949;-74
2022/07/01 00:14:42;;;;;;;4.08;3.67;;;;;;;20.15;72.05;100328.41;1736703;79;21040;-74
2022/07/01 00:17:08;;;;;;;4.83;3.60;;;;;;;20.13;72.20;100327.77;1742351;80;20981;-75
2022/07/01 00:19:35;;;;;;;5.78;4.03;;;;;;;20.11;72.33;100320.93;1739887;80;20985;-74
2022/07/01 00:22:02;;;;;;;5.22;3.77;;;;;;;20.08;72.39;100319.97;1752125;80;22249;-74
2022/07/01 00:24:28;;;;;;;4.33;3.85;;;;;;;20.06;72.48;100323.31;1748828;80;21051;-75
2022/07/01 00:26:55;;;;;;;5.05;3.77;;;;;;;20.03;72.55;100311.63;1752185;81;21037;-75
2022/07/01 00:29:21;;;;;;;6.55;3.98;;;;;;;20.00;72.60;100317.69;1751957;81;21032;-74
2022/07/01 00:31:48;;;;;;;4.30;3.90;;;;;;;19.98;72.68;100307.67;1745737;80;20952;-77
2022/07/01 00:34:15;;;;;;;6.08;3.77;;;;;;;19.97;72.77;100316.70;1749834;80;21918;-74
2022/07/01 00:36:41;;;;;;;5.90;3.80;;;;;;;19.97;72.81;100315.36;1749223;82;20997;-74
2022/07/01 00:39:08;;;;;;;7.08;3.92;;;;;;;19.98;72.89;100310.86;1750266;80;20964;-74
2022/07/01 00:41:34;;;;;;;5.17;3.90;;;;;;;19.96;72.90;100311.53;1748821;80;21231;-74
2022/07/01 00:44:00;;;;;;;7.05;3.60;;;;;;;19.94;72.95;100309.03;1749313;80;21045;-74
2022/07/01 00:46:27;;;;;;;4.33;3.58;;;;;;;19.93;73.03;100311.91;1745708;80;21780;-75
2022/07/01 00:48:56;;;;;;;6.35;4.00;;;;;;;19.91;73.09;100317.45;1743777;80;20960;-74
2022/07/01 00:51:23;;;;;;;5.00;3.60;;;;;;;19.89;73.13;100313.30;1737273;80;20997;-74
2022/07/01 00:53:50;;;;;;;5.97;4.15;;;;;;;19.86;73.18;100311.80;1750964;80;21101;-75
2022/07/01 00:56:16;;;;;;;4.03;3.70;;;;;;;19.85;73.18;100320.03;1747404;80;21550;-75
2022/07/01 00:58:43;;;;;;;5.25;3.90;;;;;;;19.84;73.18;100324.55;1756574;80;21908;-74
2022/07/01 01:01:09;;;;;;;4.03;3.72;;;;;;;19.82;73.18;100324.42;1748319;80;20952;-75
2022/07/01 01:03:36;;;;;;;4.33;3.80;;;;;;;19.78;73.22;100326.61;1749436;80;22254;-74
2022/07/01 01:06:03;;;;;;;5.28;3.90;;;;;;;19.76;73.24;100329.16;1728800;81;21510;-74
2022/07/01 01:08:30;;;;;;;6.05;3.62;;;;;;;19.75;73.25;100326.16;1694238;83;21029;-74
2022/07/01 01:10:58;;;;;;;8.00;4.10;;;;;;;19.74;73.21;100328.02;1660101;85;21962;-74
2022/07/01 01:13:24;;;;;;;4.03;3.50;;;;;;;19.72;73.21;100338.09;1660419;84;21098;-74
2022/07/01 01:15:51;;;;;;;4.35;3.70;;;;;;;19.71;73.22;100333.74;1698867;83;21008;-74
2022/07/01 01:18:18;;;;;;;4.40;3.62;;;;;;;19.68;73.19;100328.22;1691551;83;21060;-74
2022/07/01 01:20:44;;;;;;;5.75;4.00;;;;;;;19.66;73.21;100328.91;1662960;85;21054;-74
2022/07/01 01:23:11;;;;;;;4.30;3.90;;;;;;;19.64;73.22;100327.44;1691813;83;22611;-75
2022/07/01 01:25:37;;;;;;;6.08;3.75;;;;;;;19.62;73.17;100329.47;1687152;84;21020;-74
2022/07/01 01:28:04;;;;;;;7.30;3.80;;;;;;;19.59;73.13;100336.52;1690551;83;21032;-74
2022/07/01 01:30:31;;;;;;;6.22;4.10;;;;;;;19.53;73.14;100334.03;1686508;83;21032;-76
2022/07/01 01:32:57;;;;;;;5.22;4.10;;;;;;;19.46;73.19;100334.42;1688407;84;20964;-75
2022/07/01 01:35:24;;;;;;;8.90;4.20;;;;;;;19.39;73.14;100328.94;1686561;85;21958;-75
2022/07/01 01:37:51;;;;;;;5.20;4.28;;;;;;;19.33;73.19;100335.03;1668710;85;21016;-76
2022/07/01 01:40:18;;;;;;;5.95;4.17;;;;;;;19.27;73.28;100337.08;1657665;86;21021;-75
2022/07/01 01:42:45;;;;;;;4.55;4.12;;;;;;;19.23;73.37;100338.47;1657600;86;20966;-75
2022/07/01 01:45:12;;;;;;;5.40;4.42;;;;;;;19.19;73.46;100341.16;1658536;85;21508;-76
2022/07/01 01:47:38;;;;;;;5.60;4.40;;;;;;;19.13;73.50;100345.39;1678882;85;21896;-75
2022/07/01 01:50:08;;;;;;;6.15;4.47;;;;;;;19.09;73.60;100345.91;1688047;84;21071;-76
2022/07/01 01:52:34;;;;;;;5.75;4.45;;;;;;;19.06;73.64;100351.63;1692211;83;21017;-75
2022/07/01 01:55:02;;;;;;;7.33;4.30;;;;;;;19.01;73.66;100356.67;1692315;84;21511;-76
2022/07/01 01:57:28;;;;;;;5.28;4.78;;;;;;;18.97;73.79;100353.52;1685499;84;21024;-76
2022/07/01 01:59:55;;;;;;;4.87;4.20;;;;;;;18.93;73.98;100358.91;1684279;84;21813;-76
2022/07/01 02:02:21;;;;;;;6.67;4.67;;;;;;;18.88;74.12;100354.07;1693028;84;21043;-76
2022/07/01 02:04:49;;;;;;;4.60;4.20;;;;;;;18.86;74.27;100353.92;1695719;83;21048;-76
2022/07/01 02:07:15;;;;;;;7.83;4.58;;;;;;;18.87;74.32;100354.25;1683208;83;21004;-76
2022/07/01 02:09:41;;;;;;;7.47;4.40;;;;;;;18.87;74.38;100359.60;1687324;85;21025;-76
2022/07/01 02:12:08;;;;;;;4.80;4.40;;;;;;;18.85;74.43;100358.45;1686316;83;21908;-76
2022/07/01 02:14:35;;;;;;;6.03;4.40;;;;;;;18.82;74.51;100362.82;1689571;85;20987;-76
2022/07/01 02:17:03;;;;;;;4.87;4.37;;;;;;;18.82;74.53;100361.98;1696216;83;21010;-75
2022/07/01 02:19:29;;;;;;;7.58;4.40;;;;;;;18.81;74.59;100364.30;1695461;83;21026;-76
2022/07/01 02:21:56;;;;;;;4.10;3.67;;;;;;;18.79;74.67;100368.50;1687294;84;21005;-76
2022/07/01 02:24:22;;;;;;;6.15;4.03;;;;;;;18.79;74.69;100375.19;1693753;84;21798;-76
2022/07/01 02:26:49;;;;;;;4.35;3.95;;;;;;;18.81;74.62;100371.83;1695058;84;21020;-75
2022/07/01 02:29:16;;;;;;;4.60;3.65;;;;;;;18.80;74.60;100375.52;1699364;84;21383;-76
2022/07/01 02:31:42;;;;;;;6.22;4.00;;;;;;;18.78;74.65;100369.52;1673558;83;21283;-76
2022/07/01 02:34:09;;;;;;;8.53;4.20;;;;;;;18.77;74.72;100371.03;1687697;83;21084;-76
2022/07/01 02:36:35;;;;;;;8.35;4.08;;;;;;;18.75;74.77;100367.20;1687043;84;21912;-74
2022/07/01 02:39:02;;;;;;;6.40;3.67;;;;;;;18.74;74.82;100368.72;1688459;85;21060;-75
2022/07/01 02:41:29;;;;;;;8.78;4.20;;;;;;;18.73;74.92;100369.73;1688913;85;21027;-75
2022/07/01 02:43:55;;;;;;;8.23;4.15;;;;;;;18.73;74.95;100369.22;1689771;84;21421;-76
2022/07/01 02:46:22;;;;;;;4.58;3.80;;;;;;;18.74;75.01;100371.39;1689639;85;21020;-76
2022/07/01 02:48:48;;;;;;;8.50;4.20;;;;;;;18.75;75.10;100368.53;1691339;83;22674;-75
2022/07/01 02:51:15;;;;;;;4.65;4.15;;;;;;;18.78;75.10;100363.33;1693647;84;20988;-76
2022/07/01 02:53:41;;;;;;;6.12;4.10;;;;;;;18.79;75.14;100359.64;1678201;83;21448;-76
2022/07/01 02:56:08;;;;;;;6.65;4.20;;;;;;;18.82;75.27;100363.33;1688271;84;21088;-76
2022/07/01 02:58:34;;;;;;;4.33;3.92;;;;;;;18.85;75.35;100363.80;1686975;84;21056;-75
2022/07/01 03:01:02;;;;;;;8.28;4.00;;;;;;;18.87;75.46;100363.62;1689933;84;21893;-76
2022/07/01 03:03:29;;;;;;;5.33;3.98;;;;;;;18.88;75.54;100369.30;1690398;84;21065;-75
2022/07/01 03:05:56;;;;;;;4.47;4.08;;;;;;;18.90;75.53;100364.59;1708733;82;21420;-75
2022/07/01 03:08:23;;;;;;;4.70;4.20;;;;;;;18.91;75.59;100368.94;1748089;80;21404;-76
2022/07/01 03:10:50;;;;;;;6.90;4.35;;;;;;;18.96;75.72;100367.92;1729603;82;21562;-78
2022/07/01 03:13:16;;;;;;;6.22;3.92;;;;;;;18.99;75.75;100366.72;1734505;80;21851;-76
2022/07/01 03:15:43;;;;;;;7.90;4.20;;;;;;;19.02;75.82;100369.91;1735048;80;21004;-75
2022/07/01 03:18:09;;;;;;;4.85;3.98;;;;;;;19.08;75.87;100373.19;1747083;81;20916;-76
2022/07/01 03:20:37;;;;;;;7.72;4.50;;;;;;;19.14;75.92;100373.00;1734016;81;21081;-75
2022/07/01 03:23:03;;;;;;;5.90;4.30;;;;;;;19.20;75.99;100376.28;1739832;82;20997;-75
2022/07/01 03:25:30;;;;;;;5.53;4.40;;;;;;;19.26;76.06;100378.77;1727753;80;21873;-75
2022/07/01 03:27:57;;;;;;;5.25;4.10;;;;;;;19.30;76.09;100378.73;1738284;81;21496;-75
2022/07/01 03:30:24;;;;;;;6.20;4.20;;;;;;;19.33;76.13;100379.73;1732963;80;21494;-78
2022/07/01 03:32:51;;;;;;;6.12;5.05;;;;;;;19.38;76.24;100381.36;1723120;82;21668;-77
2022/07/01 03:35:36;;;;;;;7.17;4.62;;;;;;;19.43;76.36;100383.84;1729839;80;21522;-77
2022/07/01 03:38:03;;;;;;;5.35;4.30;;;;;;;19.53;76.62;100384.11;1738023;80;22241;-76
2022/07/01 03:40:31;;;;;;;5.85;4.33;;;;;;;19.61;76.71;100375.53;1736027;80;21435;-76
2022/07/01 03:42:58;;;;;;;8.75;4.40;;;;;;;19.71;76.91;100377.96;1746655;80;21476;-76
2022/07/01 03:45:25;;;;;;;7.12;4.80;;;;;;;19.84;77.21;100376.83;1748948;81;21044;-74
2022/07/01 03:47:51;;;;;;;6.08;4.42;;;;;;;19.96;77.43;100376.70;1762029;80;21438;-75
2022/07/01 03:50:21;;;;;;;5.47;4.97;;;;;;;20.08;77.50;100389.17;1763075;80;21502;-76
2022/07/01 03:52:47;;;;;;;5.10;4.60;;;;;;;20.20;77.61;100385.53;1724060;82;21067;-75
2022/07/01 03:55:14;;;;;;;6.62;4.67;;;;;;;20.32;77.66;100374.66;1744350;80;21043;-76
2022/07/01 03:57:40;;;;;;;6.97;4.87;;;;;;;20.45;77.66;100378.05;1739860;80;21029;-75
2022/07/01 04:00:09;;;;;;;8.60;5.00;;;;;;;20.57;77.59;100382.78;1740676;80;21005;-75
2022/07/01 04:02:36;;;;;;;8.90;4.60;;;;;;;20.69;77.45;100376.94;1747455;80;21895;-75
2022/07/01 04:05:04;;;;;;;8.08;4.72;;;;;;;20.82;77.28;100385.14;1743758;80;21704;-77
2022/07/01 04:07:31;;;;;;;5.50;4.83;;;;;;;20.93;77.12;100381.97;1761588;80;21054;-76
2022/07/01 04:09:57;;;;;;;5.20;4.42;;;;;;;21.05;76.92;100379.13;1754696;80;21194;-75
2022/07/01 04:12:25;;;;;;;5.35;4.65;;;;;;;21.16;76.73;100377.80;1753588;80;21418;-79
2022/07/01 04:14:51;;;;;;;6.95;4.60;;;;;;;21.28;76.47;100378.15;1730986;80;21507;-76
2022/07/01 04:17:18;;;;;;;7.47;4.12;;;;;;;21.38;75.94;100377.32;1741090;80;20956;-75
2022/07/01 04:19:45;;;;;;;4.78;4.28;;;;;;;21.47;75.40;100386.09;1754318;80;21051;-75
2022/07/01 04:24:57;;;;;;;4.95;4.22;;;;;;;21.65;74.67;100382.44;1749794;81;20957;-75
2022/07/01 04:27:23;;;;;;;6.55;4.72;;;;;;;21.77;74.31;100388.11;1742269;80;21888;-76
2022/07/01 04:29:49;;;;;;;5.37;4.25;;;;;;;21.83;73.66;100386.00;1742036;80;21141;-76
2022/07/01 04:32:16;;;;;;;4.78;4.30;;;;;;;21.92;73.06;100388.87;1740310;80;21435;-75
2022/07/01 04:34:42;;;;;;;5.22;4.65;;;;;;;22.00;72.67;100388.69;1750194;80;21004;-75
2022/07/01 04:37:09;;;;;;;6.00;4.70;;;;;;;22.09;72.23;100384.03;1739459;80;21047;-80
2022/07/01 04:39:36;;;;;;;9.20;4.70;;;;;;;22.17;71.84;100387.92;1745834;80;21737;-75
2022/07/01 04:42:04;;;;;;;6.10;4.80;;;;;;;22.25;71.69;100392.64;1740886;80;21193;-75
2022/07/01 04:44:33;;;;;;;7.10;4.35;;;;;;;22.32;71.20;100394.55;1749454;80;21008;-75
2022/07/01 04:47:00;;;;;;;8.00;4.72;;;;;;;22.38;70.82;100398.60;1747776;80;20965;-74
2022/07/01 04:49:27;;;;;;;5.83;4.35;;;;;;;22.44;70.44;100395.13;1755159;80;21000;-76
2022/07/01 04:51:54;;;;;;;7.28;4.72;;;;;;;22.51;70.26;100391.14;1741543;80;21909;-77
2022/07/01 04:54:21;;;;;;;5.87;4.33;;;;;;;22.55;70.10;100389.18;1747566;80;21023;-77
2022/07/01 04:56:48;;;;;;;7.17;4.90;;;;;;;22.62;69.95;100391.92;1706861;81;21028;-77
2022/07/01 04:59:14;;;;;;;5.15;4.60;;;;;;;22.68;69.63;100394.30;1741088;81;21005;-76
2022/07/01 05:01:43;;;;;;;9.60;4.70;;;;;;;22.73;69.20;100394.55;1744896;80;21063;-76
2022/07/01 05:04:12;;;;;;;6.75;4.20;;;;;;;22.78;68.87;100390.76;1753451;80;21847;-75
2022/07/01 05:06:39;;;;;;;4.65;3.95;;;;;;;22.88;68.58;100396.63;1737417;80;20986;-75
2022/07/01 05:09:06;;;;;;;7.20;3.90;;;;;;;22.97;68.17;100393.21;1715522;80;21402;-76
2022/07/01 05:11:33;;;;;;;7.00;4.25;;;;;;;23.06;67.64;100389.30;1735385;80;21460;-76
2022/07/01 05:14:01;;;;;;;7.75;4.40;;;;;;;23.15;67.31;100385.39;1738477;80;21039;-76
2022/07/01 05:16:28;;;;;;;8.48;3.98;;;;;;;23.25;67.09;100390.39;1738739;80;22176;-75
2022/07/01 05:21:59;;;;;;;6.30;3.98;;;;;;;23.38;65.54;100384.53;1750455;80;21056;-74
2022/07/01 05:24:30;;;;;;;5.50;4.10;;;;;;;23.47;65.27;100384.34;1738054;80;21503;-75
2022/07/01 05:27:00;;;;;;;4.77;4.33;;;;;;;23.54;65.08;100379.76;1736078;80;20969;-75
2022/07/01 05:29:26;;;;;;;4.72;4.28;;;;;;;23.60;65.25;100382.50;1737627;80;22037;-75
2022/07/01 05:31:53;;;;;;;6.80;4.53;;;;;;;23.69;65.43;100375.87;1748830;80;21066;-74
2022/07/01 05:34:20;;;;;;;5.70;3.92;;;;;;;23.77;64.93;100380.75;1722315;80;20972;-74
2022/07/01 05:36:47;;;;;;;5.15;4.08;;;;;;;23.82;64.47;100371.50;1738797;80;21016;-74
2022/07/01 05:39:14;;;;;;;5.03;3.65;;;;;;;23.90;64.45;100372.13;1744853;80;20984;-74
2022/07/01 05:41:41;;;;;;;6.60;4.03;;;;;;;24.01;64.56;100370.66;1696110;82;21851;-74
2022/07/01 05:44:07;;;;;;;5.03;4.30;;;;;;;24.13;64.52;100364.12;1676290;82;21515;-74
2022/07/01 05:46:36;;;;;;;4.33;3.42;;;;;;;24.25;64.23;100374.58;1697879;82;21346;-79
2022/07/01 05:49:02;;;;;;;5.40;3.58;;;;;;;24.30;61.57;100371.23;1672508;83;21022;-76
2022/07/01 05:51:29;;;;;;;5.15;3.75;;;;;;;24.36;61.26;100374.47;1666392;83;21070;-75
2022/07/01 05:53:56;;;;;;;4.00;3.20;;;;;;;24.42;61.22;100370.94;1664096;83;21924;-77
2022/07/01 05:56:23;;;;;;;3.33;2.75;;;;;;;24.47;60.68;100367.89;1676193;83;21559;-75
2022/07/01 05:58:50;;;;;;;4.72;2.70;;;;;;;24.54;58.90;100366.01;1694074;82;21034;-75
2022/07/01 06:01:16;;;;;;;4.37;2.40;;;;;;;24.61;58.67;100370.53;1696901;83;20987;-75
2022/07/01 06:03:44;;;;;;;3.20;2.45;;;;;;;24.68;56.07;100368.12;1720228;82;21008;-75
2022/07/01 06:06:10;;;;;;;4.92;2.27;;;;;;;24.74;54.37;100366.45;1690817;83;21813;-76
2022/07/01 06:08:37;;;;;;;4.30;2.17;;;;;;;24.76;52.77;100371.94;1693186;83;20905;-75
2022/07/01 06:11:03;;;;;;;5.60;2.90;;;;;;;24.82;53.16;100364.86;1746076;80;21429;-75
2022/07/01 06:13:30;;;;;;;12.95;3.02;;;;;;;24.93;54.95;100367.41;1743103;80;21516;-75
2022/07/01 06:15:58;;;;;;;4.72;2.80;;;;;;;25.05;55.59;100367.88;1720329;81;20964;-76
2022/07/01 06:18:25;;;;;;;2.77;2.25;;;;;;;25.11;54.81;100368.38;1685411;83;22600;-76
2022/07/01 06:20:51;;;;;;;4.60;2.65;;;;;;;25.17;52.89;100363.95;1745800;81;21487;-79
2022/07/01 06:23:18;;;;;;;3.02;2.50;;;;;;;25.21;52.64;100364.37;1732368;80;21388;-76
2022/07/01 06:25:45;;;;;;;4.95;2.47;;;;;;;25.28;53.45;100367.30;1747757;80;21643;-76
2022/07/01 06:28:12;;;;;;;4.67;2.45;;;;;;;25.35;53.03;100361.86;1752471;80;21469;-76
2022/07/01 06:30:43;;;;;;;3.92;2.33;;;;;;;25.46;53.03;100374.67;1749197;80;22553;-74
2022/07/01 06:33:07;;;;;;;2.58;2.35;;;;;;;25.52;51.47;100368.41;1688745;83;20967;-73
2022/07/01 06:35:34;;;;;;;5.22;2.80;;;;;;;25.59;51.41;100368.36;1745290;80;21436;-74
2022/07/01 06:38:00;;;;;;;4.08;2.20;;;;;;;25.62;51.84;100371.44;1749332;80;21068;-73
2022/07/01 06:40:27;;;;;;;7.17;2.60;;;;;;;25.66;51.67;100370.46;1749624;80;20991;-73
2022/07/01 06:42:55;;;;;;;6.62;2.70;;;;;;;25.74;50.48;100370.75;1745987;80;21919;-73
2022/07/01 06:45:28;;;;;;;5.10;2.30;;;;;;;25.77;50.39;100367.10;1744593;80;21056;-76
2022/07/01 06:47:55;;;;;;;4.42;2.70;;;;;;;25.81;50.04;100368.30;1746154;80;21070;-73
2022/07/01 06:50:22;;;;;;;3.37;2.50;;;;;;;25.88;49.76;100366.37;1749446;80;21087;-74
2022/07/01 06:52:48;;;;;;;4.40;2.50;;;;;;;25.98;50.71;100365.86;1701455;80;21074;-74
2022/07/01 06:55:15;;;;;;;5.42;2.77;;;;;;;26.09;50.25;100371.06;1747987;82;21943;-74
2022/07/01 06:57:41;;;;;;;4.00;2.20;;;;;;;26.13;49.93;100366.84;1746072;80;21039;-74
2022/07/01 07:00:10;;;;;;;3.22;2.22;;;;;;;26.17;49.45;100369.42;1751512;80;21074;-73
2022/07/01 07:02:37;;;;;;;5.35;2.20;;;;;;;26.20;48.90;100367.62;1744005;80;20971;-73
2022/07/01 07:05:04;;;;;;;3.45;2.10;;;;;;;26.22;48.74;100369.04;1745708;80;21553;-73
2022/07/01 07:07:31;;;;;;;4.05;2.12;;;;;;;26.23;49.37;100377.45;1750819;80;22938;-73
2022/07/01 07:09:58;;;;;;;4.45;2.17;;;;;;;26.28;48.58;100383.58;1747047;80;21063;-73
2022/07/01 07:12:24;;;;;;;2.52;1.82;;;;;;;26.28;47.31;100383.58;1749828;80;20973;-73
2022/07/01 07:14:51;;;;;;;5.58;1.90;;;;;;;26.31;46.94;100383.64;1745750;80;21040;-73
2022/07/01 07:17:18;;;;;;;6.80;1.82;;;;;;;26.36;46.18;100386.52;1749259;80;20953;-76
2022/07/01 07:19:44;;;;;;;3.83;1.60;;;;;;;26.43;46.33;100385.92;1742864;80;21899;-73
2022/07/01 07:22:11;;;;;;;3.30;1.80;;;;;;;26.52;45.97;100385.93;1747891;80;21088;-73
2022/07/01 07:24:38;;;;;;;1.82;1.47;;;;;;;26.63;46.28;100379.75;1743516;80;21037;-73
2022/07/01 07:27:04;;;;;;;2.27;1.70;;;;;;;26.72;44.78;100377.03;1748385;80;21004;-74
2022/07/01 07:29:32;;;;;;;2.58;1.90;;;;;;;26.78;45.50;100377.48;1756409;80;21083;-73
2022/07/01 07:31:58;;;;;;;3.33;1.82;;;;;;;26.79;45.88;100377.78;1749537;82;21928;-73
2022/07/01 07:34:25;;;;;;;3.87;1.50;;;;;;;26.84;45.51;100380.36;1748252;80;20980;-74
2022/07/01 07:36:51;;;;;;;5.47;1.90;;;;;;;26.88;45.53;100372.05;1746010;80;21351;-74
2022/07/01 07:39:17;;;;;;;2.70;1.90;;;;;;;26.91;45.29;100367.00;1743369;81;21410;-73
2022/07/01 07:41:44;;;;;;;4.20;1.70;;;;;;;26.92;45.79;100363.22;1739334;80;21192;-73
2022/07/01 07:44:10;;;;;;;4.33;1.98;;;;;;;27.04;45.82;100371.46;1750770;80;21930;-74
2022/07/01 07:46:37;;;;;;;4.83;2.15;;;;;;;27.13;45.96;100367.38;1749130;80;21036;-75
2022/07/01 07:49:03;;;;;;;3.33;1.98;;;;;;;27.22;45.50;100371.94;1714031;81;21026;-74
2022/07/01 07:51:31;;;;;;;6.03;2.12;;;;;;;27.31;45.36;100370.03;1691283;83;21071;-74
2022/07/01 07:53:58;;;;;;;5.70;1.92;;;;;;;27.30;45.09;100365.63;1746998;80;21003;-74
2022/07/01 07:56:24;;;;;;;3.58;1.98;;;;;;;27.28;45.39;100362.86;1743525;80;21852;-76
2022/07/01 07:58:50;;;;;;;5.60;2.17;;;;;;;27.29;44.97;100363.16;1742581;80;21386;-77
2022/07/01 08:01:17;;;;;;;2.58;2.08;;;;;;;27.23;45.53;100370.34;1749873;80;21016;-76
2022/07/01 08:03:45;;;;;;;5.87;2.30;;;;;;;27.29;46.10;100373.47;1756558;80;21004;-75
2022/07/01 08:06:12;;;;;;;7.83;2.22;;;;;;;27.36;45.78;100370.67;1747758;80;21544;-84
2022/07/01 08:08:38;;;;;;;4.05;2.30;;;;;;;27.42;46.15;100367.57;1761936;80;21981;-75
2022/07/01 08:11:05;;;;;;;7.85;2.20;;;;;;;27.47;46.16;100372.58;1761939;80;21078;-75
2022/07/01 08:13:32;;;;;;;4.53;2.40;;;;;;;27.58;46.50;100363.63;1763347;80;21557;-76
2022/07/01 08:16:00;;;;;;;3.10;2.27;;;;;;;27.69;45.48;100361.20;1762879;80;21153;-76
2022/07/01 08:18:27;;;;;;;3.17;2.52;;;;;;;27.69;45.31;100358.48;1762315;80;20951;-75
2022/07/01 08:20:55;;;;;;;3.72;2.33;;;;;;;27.61;45.26;100360.47;1761021;80;22507;-75
2022/07/01 08:23:21;;;;;;;3.98;2.25;;;;;;;27.64;46.21;100359.17;1761407;80;21031;-74
2022/07/01 08:25:49;;;;;;;2.92;2.02;;;;;;;27.74;45.90;100355.37;1758910;80;20973;-75
2022/07/01 08:28:16;;;;;;;2.20;2.00;;;;;;;27.76;45.28;100357.84;1762142;80;21402;-75
2022/07/01 08:30:42;;;;;;;5.10;2.50;;;;;;;27.77;45.70;100360.86;1733807;80;21024;-76
2022/07/01 08:33:10;;;;;;;4.60;2.58;;;;;;;27.81;45.21;100360.70;1760321;80;21875;-75
2022/07/01 08:35:37;;;;;;;4.47;2.77;;;;;;;27.84;46.04;100348.83;1762826;80;21451;-74
2022/07/01 08:38:04;;;;;;;5.08;2.60;;;;;;;27.98;45.75;100346.69;1762299;80;21448;-75
2022/07/01 08:40:32;;;;;;;2.62;2.40;;;;;;;28.09;45.29;100347.24;1760561;80;21107;-77
2022/07/01 08:43:05;;;;;;;3.15;2.70;;;;;;;28.22;45.86;100343.44;1726839;81;21046;-76
2022/07/01 08:45:34;;;;;;;4.45;2.65;;;;;;;28.34;44.91;100346.98;1760748;81;21786;-79
2022/07/01 08:48:00;;;;;;;4.20;2.67;;;;;;;28.39;44.91;100345.75;1747434;79;21581;-76
2022/07/01 08:50:36;;;;;;;5.50;2.40;;;;;;;28.49;44.78;100336.98;1730733;81;21457;-77
2022/07/01 08:53:04;;;;;;;4.33;2.25;;;;;;;28.55;44.92;100337.36;1718950;81;21293;-76
2022/07/01 08:55:31;;;;;;;2.85;2.50;;;;;;;28.70;44.75;100337.67;1749043;81;21039;-76
2022/07/01 08:57:58;;;;;;;3.45;2.70;;;;;;;28.80;44.41;100334.33;1749135;81;21916;-74
2022/07/01 09:00:31;;;;;;;3.47;2.40;;;;;;;28.84;44.45;100332.77;1754948;81;21141;-76
2022/07/01 09:02:59;;;;;;;;;;;;;;;28.87;44.99;100334.20;1687562;83;21075;-74
2022/07/01 09:05:28;;;;;;;3.87;2.62;;;;;;;29.01;45.09;100333.67;1715593;82;20713;-77
2022/07/01 09:08:01;;;;;;;4.15;2.58;;;;;;;29.14;44.93;100324.91;1698526;83;21521;-76
2022/07/01 09:10:30;;;;;;;;;;;;;;;29.25;44.92;100326.77;1679070;83;21943;-76
2022/07/01 09:13:09;;;;;;;5.80;2.83;;;;;;;29.31;43.53;100327.94;1682051;84;20183;-74
2022/07/01 09:15:37;;;;;;;4.12;2.60;;;;;;;29.27;44.03;100323.26;1656088;85;21044;-82
2022/07/01 09:18:15;;;;;;;5.42;2.80;;;;;;;29.30;44.45;100318.67;1665227;85;21301;-76
2022/07/01 09:20:44;;;;;;;4.30;3.00;;;;;;;29.32;43.77;100320.06;1680968;83;22446;-75
2022/07/01 09:23:14;;;;;;;3.55;2.92;;;;;;;29.23;43.36;100320.18;1688566;85;22351;-72
2022/07/01 09:25:47;;;;;;;5.80;3.02;;;;;;;29.16;43.21;100324.16;1688922;83;21027;-75
2022/07/01 09:28:29;;;;;;;3.35;2.95;;;;;;;29.13;44.37;100313.74;1709923;82;21053;-73
2022/07/01 09:30:57;;;;;;;4.95;2.87;;;;;;;29.13;43.45;100311.84;1692050;83;21027;-78
2022/07/01 09:33:33;;;;;;;5.42;2.60;;;;;;;29.06;43.68;100319.36;1682451;83;22093;-74
2022/07/01 09:35:56;;;;;;;4.72;2.87;;;;;;;29.12;44.82;100317.00;1685955;83;21797;-73
2022/07/01 09:38:24;;;;;;;5.40;3.00;;;;;;;29.23;43.81;100320.72;1722227;82;21094;-74
2022/07/01 09:40:55;;;;;;;4.97;2.90;;;;;;;29.34;43.32;100314.41;1674870;83;21108;-76
2022/07/01 09:43:33;;;;;;;6.08;2.75;;;;;;;29.45;44.46;100301.79;1680032;83;21109;-71
2022/07/01 09:46:07;;;;;;;5.20;3.00;;;;;;;29.79;43.49;100303.96;1678759;83;21095;-75
2022/07/01 09:48:39;;;;;;;5.92;2.92;;;;;;;29.79;43.49;100303.96;1688941;83;21907;-77
2022/07/01 09:51:08;;;;;;;5.00;2.83;;;;;;;29.84;42.58;100313.04;1689547;83;21400;-72
2022/07/01 09:53:35;;;;;;;6.35;2.98;;;;;;;29.71;42.73;100317.99;1706912;82;21040;-73
2022/07/01 09:56:01;;;;;;;4.95;2.85;;;;;;;29.48;42.70;100310.81;1696475;83;21019;-73
2022/07/01 09:58:28;;;;;;;2.80;2.60;;;;;;;29.26;43.23;100310.73;1711781;82;21040;-73
2022/07/01 10:00:55;;;;;;;5.35;2.98;;;;;;;29.22;44.42;100307.66;1691163;83;22685;-74
2022/07/01 10:03:22;;;;;;;4.95;2.70;;;;;;;29.57;45.32;100293.84;1709614;83;21076;-75
2022/07/01 10:05:59;;;;;;;4.22;2.70;;;;;;;29.57;45.32;100293.84;1688256;83;21008;-77
2022/07/01 10:08:51;;;;;;;3.87;2.80;;;;;;;29.87;44.00;100295.38;1708242;81;21606;-76
2022/07/01 10:11:34;;;;;;;3.80;2.70;;;;;;;30.32;43.59;100293.01;1719551;81;21026;-75
2022/07/01 10:13:57;;;;;;;3.10;2.77;;;;;;;30.32;43.59;100293.01;1679908;83;21921;-74
2022/07/01 10:16:24;;;;;;;5.35;3.00;;;;;;;30.57;40.54;100287.02;1685832;83;21039;-73
2022/07/01 10:18:50;;;;;;;5.70;2.70;;;;;;;30.61;40.77;100286.80;1693340;83;21064;-76
2022/07/01 10:21:29;;;;;;;3.87;2.55;;;;;;;30.69;39.84;100283.63;1693409;83;21057;-76
2022/07/01 10:24:16;;;;;;;6.50;2.55;;;;;;;30.82;37.72;100280.52;1721292;82;22053;-75
2022/07/01 10:26:43;;;;;;;2.55;2.35;;;;;;;30.87;37.30;100272.91;1723094;82;21935;-78
2022/07/01 10:29:33;;;;;;;3.37;2.27;;;;;;;30.93;38.68;100270.52;1716451;82;21032;-74
2022/07/01 10:32:24;;;;;;;3.58;2.50;;;;;;;31.06;39.37;100273.63;1716192;83;21041;-73
2022/07/01 10:34:50;;;;;;;3.87;2.80;;;;;;;31.24;39.56;100262.91;1720997;83;20994;-74
2022/07/01 10:37:17;;;;;;;5.87;2.60;;;;;;;31.37;39.02;100263.56;1685658;84;21039;-72
2022/07/01 10:40:00;;;;;;;5.75;2.87;;;;;;;31.34;38.95;100261.61;1720165;83;21913;-72
2022/07/01 10:42:37;;;;;;;5.87;2.72;;;;;;;31.28;38.89;100264.59;1710574;81;21055;-74
2022/07/01 10:45:09;;;;;;;4.95;2.80;;;;;;;31.02;39.09;100262.15;1720884;81;22272;-77
2022/07/01 10:47:37;;;;;;;7.30;2.95;;;;;;;30.85;40.63;100259.53;1725496;83;21029;-76
2022/07/01 10:50:16;;;;;;;3.52;2.70;;;;;;;30.90;40.13;100255.50;1723450;83;21107;-76
2022/07/01 10:53:02;;;;;;;3.00;2.67;;;;;;;31.03;40.66;100259.70;1718828;81;21812;-75
2022/07/01 10:55:40;;;;;;;3.35;2.67;;;;;;;31.18;39.83;100263.11;1725068;83;21045;-74
2022/07/01 10:58:06;;;;;;;3.30;2.70;;;;;;;31.30;40.37;100257.78;1725086;81;21029;-73
2022/07/01 11:00:35;;;;;;;3.67;2.90;;;;;;;31.45;40.22;100251.59;1724863;82;21051;-73
2022/07/01 11:03:13;;;;;;;3.35;2.50;;;;;;;31.56;39.97;100256.06;1727853;81;21053;-73
2022/07/01 11:05:41;;;;;;;3.70;2.50;;;;;;;31.70;39.90;100252.31;1703824;81;21940;-87
2022/07/01 11:08:08;;;;;;;9.25;2.60;;;;;;;31.79;39.00;100252.66;1707500;82;21113;-76
2022/07/01 11:10:35;;;;;;;3.92;2.62;;;;;;;31.69;38.05;100246.58;1690791;83;21109;-75
2022/07/01 11:13:02;;;;;;;3.08;2.60;;;;;;;31.47;38.87;100255.45;1688456;84;21602;-75
2022/07/01 11:15:30;;;;;;;3.85;2.30;;;;;;;31.33;38.51;100249.05;1688804;83;21033;-76
2022/07/01 11:17:57;;;;;;;5.37;2.47;;;;;;;31.14;38.62;100241.51;1686378;83;22398;-73
2022/07/01 11:20:27;;;;;;;2.98;2.72;;;;;;;31.05;39.21;100241.98;1685782;83;21042;-75
2022/07/01 11:22:53;;;;;;;6.87;2.90;;;;;;;30.96;39.45;100249.53;1684014;85;21049;-77
2022/07/01 11:25:21;;;;;;;3.20;2.80;;;;;;;30.82;40.13;100245.60;1693813;83;21049;-75
2022/07/01 11:27:50;;;;;;;4.10;2.72;;;;;;;30.69;40.64;100248.18;1691466;83;21129;-75
2022/07/01 11:30:17;;;;;;;3.60;3.30;;;;;;;30.67;41.43;100251.72;1689059;83;21963;-75
2022/07/01 11:32:51;;;;;;;4.58;2.98;;;;;;;30.67;40.75;100233.99;1677732;83;21065;-72
2022/07/01 11:41:07;;;;;;;6.47;3.30;;;;;;;31.49;39.01;100220.52;1685572;83;21082;-71
2022/07/01 11:43:38;;;;;;;5.47;3.00;;;;;;;31.66;39.88;100227.17;1656245;85;21799;-71